Time;durP1;ratioP1;P1;durP2;ratioP2;P2;SDS_P1;SDS_P2;PMS_P1;PMS_P2;Temp;Humidity;BMP_temperature;BMP_pressure;BME280_temperature;BME280_humidity;BME280_pressure;Samples;Min_cycle;Max_cycle;Signal;HPM_P1;HPM_P2
2021/09/20 00:02:34;;;;;;;10.25;6.40;;;;;;;14.41;87.39;99417.59;1741900;82;21712;-76
2021/09/20 00:05:40;;;;;;;7.37;6.03;;;;;;;14.38;87.26;99425.73;1741749;82;21239;-76
2021/09/20 00:08:45;;;;;;;6.62;5.85;;;;;;;14.36;87.46;99425.13;1741843;82;21331;-76
2021/09/20 00:11:50;;;;;;;7.75;6.03;;;;;;;14.37;87.47;99433.69;1743446;82;21307;-76
2021/09/20 00:14:57;;;;;;;7.65;6.25;;;;;;;14.36;87.79;99433.39;1741835;82;21791;-77
2021/09/20 00:18:03;;;;;;;10.78;6.78;;;;;;;14.35;87.92;99425.34;1742106;82;21303;-76
2021/09/20 00:21:10;;;;;;;8.45;6.58;;;;;;;14.34;87.84;99416.24;1741863;82;21243;-76
2021/09/20 00:24:16;;;;;;;10.80;6.60;;;;;;;14.30;87.94;99415.88;1712928;84;21244;-76
2021/09/20 00:27:22;;;;;;;9.10;6.97;;;;;;;14.31;88.31;99415.33;1711726;83;21791;-76
2021/09/20 00:30:28;;;;;;;7.55;5.42;;;;;;;14.37;88.53;99431.48;1713018;84;21740;-76
2021/09/20 00:33:34;;;;;;;11.80;7.12;;;;;;;14.37;88.46;99430.94;1711865;83;21240;-76
2021/09/20 00:36:42;;;;;;;9.85;6.65;;;;;;;14.35;88.48;99428.95;1711975;83;21204;-76
2021/09/20 00:39:49;;;;;;;9.63;7.05;;;;;;;14.36;88.67;99422.92;1711562;83;21212;-76
2021/09/20 00:42:55;;;;;;;8.83;6.15;;;;;;;14.31;88.61;99418.92;1713189;84;21294;-76
2021/09/20 00:46:00;;;;;;;11.70;7.85;;;;;;;14.25;88.45;99423.08;1713278;84;21197;-76
2021/09/20 00:49:07;;;;;;;12.03;7.55;;;;;;;14.16;88.60;99434.03;1711754;84;21288;-76
2021/09/20 00:52:12;;;;;;;7.83;5.90;;;;;;;14.10;88.99;99430.80;1713102;84;21314;-76
2021/09/20 00:55:18;;;;;;;9.30;6.75;;;;;;;14.10;89.35;99429.42;1711684;84;21842;-76
2021/09/20 00:58:25;;;;;;;8.75;6.58;;;;;;;14.12;89.69;99419.06;1712574;84;21319;-76
2021/09/20 01:01:32;;;;;;;9.85;6.78;;;;;;;14.14;89.60;99425.17;1712305;84;21366;-76
2021/09/20 01:04:37;;;;;;;8.53;6.72;;;;;;;14.09;89.54;99425.83;1714138;84;21783;-76
2021/09/20 01:07:43;;;;;;;11.35;6.20;;;;;;;14.06;89.67;99425.72;1711760;84;21799;-76
2021/09/20 01:10:50;;;;;;;12.37;6.22;;;;;;;14.09;90.03;99435.98;1711815;84;21205;-76
2021/09/20 01:13:56;;;;;;;10.90;6.28;;;;;;;14.06;90.16;99435.88;1711741;83;21285;-76
2021/09/20 01:17:03;;;;;;;9.23;6.85;;;;;;;14.06;90.49;99438.63;1711827;84;21248;-76
2021/09/20 01:20:11;;;;;;;9.55;6.28;;;;;;;14.04;90.62;99441.61;1711753;83;21200;-76
2021/09/20 01:23:16;;;;;;;7.97;6.50;;;;;;;14.00;90.94;99444.48;1722979;82;21643;-76
2021/09/20 01:26:22;;;;;;;8.58;6.62;;;;;;;13.99;91.41;99441.43;1738589;82;21339;-76
2021/09/20 01:29:27;;;;;;;9.90;6.37;;;;;;;14.00;92.15;99437.61;1738780;82;21335;-76
2021/09/20 01:32:33;;;;;;;6.75;5.67;;;;;;;14.05;92.66;99440.55;1699479;82;22650;-76
2021/09/20 01:35:38;;;;;;;7.45;5.80;;;;;;;14.09;92.88;99423.08;1739825;82;21304;-76
2021/09/20 01:38:45;;;;;;;5.95;5.10;;;;;;;14.06;92.82;99418.84;1739509;82;21248;-77
2021/09/20 01:41:52;;;;;;;6.90;5.37;;;;;;;14.05;93.06;99413.58;1738556;82;21335;-77
2021/09/20 01:44:59;;;;;;;6.55;5.65;;;;;;;14.03;93.17;99401.44;1739747;82;21352;-77
2021/09/20 01:48:04;;;;;;;7.62;5.25;;;;;;;13.96;93.06;99412.99;1739834;82;21330;-77
2021/09/20 01:51:09;;;;;;;8.50;6.00;;;;;;;13.89;93.08;99412.20;1739823;82;21903;-76
2021/09/20 01:54:14;;;;;;;11.85;6.08;;;;;;;13.85;93.24;99412.33;1740000;82;21228;-76
2021/09/20 01:57:22;;;;;;;6.65;5.60;;;;;;;13.86;93.59;99420.88;1739960;82;21910;-76
2021/09/20 02:00:27;;;;;;;7.67;6.47;;;;;;;13.87;93.80;99428.05;1738461;82;21854;-76
2021/09/20 02:03:33;;;;;;;6.97;6.22;;;;;;;13.87;93.84;99438.21;1740010;82;21189;-76
2021/09/20 02:06:38;;;;;;;9.50;6.30;;;;;;;13.86;93.90;99426.38;1739796;82;21304;-76
2021/09/20 02:09:45;;;;;;;10.35;6.35;;;;;;;13.86;93.99;99427.75;1739181;82;21229;-76
2021/09/20 02:12:51;;;;;;;6.83;5.97;;;;;;;13.86;94.09;99440.12;1739934;82;21779;-76
2021/09/20 02:15:58;;;;;;;11.75;7.22;;;;;;;13.81;94.11;99429.78;1738449;82;21197;-76
2021/09/20 02:19:05;;;;;;;8.23;6.55;;;;;;;13.80;94.25;99426.72;1739394;82;21217;-76
2021/09/20 02:24:41;;;;;;;10.20;6.47;;;;;;;13.83;94.82;99427.34;1857310;76;29448;-77
2021/09/20 02:27:46;;;;;;;8.73;7.10;;;;;;;13.80;94.96;99428.63;1749314;82;21299;-76
2021/09/20 02:30:51;;;;;;;10.32;7.55;;;;;;;13.80;95.02;99434.12;1765956;81;21174;-76
2021/09/20 02:33:57;;;;;;;9.88;7.45;;;;;;;13.75;94.90;99429.82;1749306;82;21771;-76
2021/09/20 02:36:50;;;;;;;10.13;7.33;;;;;;;13.72;95.08;99440.70;1767267;81;21706;-77
2021/09/20 02:39:55;;;;;;;11.33;7.35;;;;;;;13.69;95.11;99443.04;1750858;82;21287;-77
2021/09/20 02:43:02;;;;;;;12.40;7.33;;;;;;;13.66;95.13;99441.58;1767121;81;21745;-77
2021/09/20 02:46:07;;;;;;;10.38;6.78;;;;;;;13.64;95.05;99442.31;1750731;82;21564;-76
2021/09/20 02:49:14;;;;;;;9.85;6.83;;;;;;;13.63;95.04;99443.92;1765560;81;21202;-76
2021/09/20 02:52:20;;;;;;;7.92;6.40;;;;;;;13.62;94.89;99443.08;1751786;82;21779;-76
2021/09/20 02:55:25;;;;;;;9.53;6.28;;;;;;;13.59;94.86;99435.25;1768126;81;21257;-76
2021/09/20 02:58:32;;;;;;;11.95;6.92;;;;;;;13.59;94.75;99447.62;1749462;82;21195;-77
2021/09/20 03:01:38;;;;;;;9.58;6.70;;;;;;;13.58;94.54;99449.22;1742162;81;21379;-76
2021/09/20 03:04:44;;;;;;;8.00;5.70;;;;;;;13.58;94.36;99454.19;1735659;82;21229;-76
2021/09/20 03:07:49;;;;;;;9.88;6.12;;;;;;;13.61;94.34;99459.79;1748155;82;21303;-77
2021/09/20 03:10:55;;;;;;;8.23;5.60;;;;;;;13.63;93.91;99456.28;1746609;82;21196;-77
2021/09/20 03:14:01;;;;;;;7.17;5.67;;;;;;;13.65;93.62;99456.39;1746429;82;21335;-77
2021/09/20 03:17:08;;;;;;;8.53;5.80;;;;;;;13.66;93.21;99460.82;1724719;82;21785;-76
2021/09/20 03:20:15;;;;;;;7.70;5.33;;;;;;;13.67;92.90;99467.16;1739163;82;21807;-76
2021/09/20 03:23:22;;;;;;;9.40;4.80;;;;;;;13.70;92.73;99468.11;1740358;82;21764;-77
2021/09/20 03:26:28;;;;;;;5.55;4.00;;;;;;;13.71;92.44;99467.04;1726866;83;21387;-76
2021/09/20 03:29:34;;;;;;;5.85;4.55;;;;;;;13.71;91.72;99472.54;1726098;83;21338;-77
2021/09/20 03:32:40;;;;;;;9.63;3.92;;;;;;;13.67;91.07;99468.53;1724710;83;21280;-77
2021/09/20 03:35:45;;;;;;;8.70;3.47;;;;;;;13.62;90.50;99469.18;1720391;83;21325;-76
2021/09/20 03:38:51;;;;;;;4.92;3.45;;;;;;;13.54;89.31;99474.37;1720395;83;21844;-76
2021/09/20 03:41:56;;;;;;;4.25;3.30;;;;;;;13.47;88.65;99481.80;1721430;83;21915;-76
2021/09/20 03:45:02;;;;;;;5.80;3.85;;;;;;;13.43;88.46;99487.94;1725157;83;21959;-76
2021/09/20 03:48:06;;;;;;;7.65;4.42;;;;;;;13.39;88.53;99490.27;1697425;84;21633;-76
2021/09/20 03:51:14;;;;;;;10.72;8.23;;;;;;;13.36;88.57;99492.59;1739297;81;21189;-76
2021/09/20 03:54:19;;;;;;;14.98;10.40;;;;;;;13.34;88.31;99491.44;1748359;81;21327;-76
2021/09/20 03:57:25;;;;;;;18.02;10.45;;;;;;;13.29;87.86;99491.24;1771159;81;21714;-76
2021/09/20 04:00:32;;;;;;;16.32;13.50;;;;;;;13.25;87.13;99495.47;1771864;80;21733;-76
2021/09/20 04:03:37;;;;;;;24.57;15.18;;;;;;;13.19;86.27;99493.02;1772047;81;21158;-76
2021/09/20 04:06:43;;;;;;;21.73;15.58;;;;;;;13.17;85.81;99487.41;1771227;81;21824;-75
2021/09/20 04:09:49;;;;;;;22.20;16.57;;;;;;;13.15;85.02;99490.91;1770825;81;21328;-76
2021/09/20 04:12:54;;;;;;;24.67;14.03;;;;;;;13.14;84.04;99497.47;1771022;81;21296;-76
2021/09/20 04:16:02;;;;;;;16.57;10.98;;;;;;;13.17;81.50;99501.98;1769572;81;21740;-76
2021/09/20 04:19:07;;;;;;;18.35;11.18;;;;;;;13.17;79.14;99497.02;1771191;81;21304;-76
2021/09/20 04:22:15;;;;;;;19.92;12.23;;;;;;;13.14;76.83;99501.59;1770018;81;21312;-76
2021/09/20 04:25:21;;;;;;;20.85;9.85;;;;;;;13.11;74.70;99504.21;1770808;80;21236;-76
2021/09/20 04:28:27;;;;;;;26.17;11.05;;;;;;;13.04;73.32;99513.84;1770414;81;21371;-76
2021/09/20 04:31:32;;;;;;;17.20;8.40;;;;;;;12.96;73.09;99517.31;1764717;81;21292;-76
2021/09/20 04:34:39;;;;;;;18.90;9.85;;;;;;;12.86;72.56;99527.34;1767850;81;21303;-77
2021/09/20 04:37:44;;;;;;;21.82;9.73;;;;;;;12.74;72.88;99523.52;1770300;79;21653;-78
2021/09/20 04:40:49;;;;;;;22.77;9.55;;;;;;;12.62;73.61;99527.95;1769254;81;21237;-78
2021/09/20 04:43:54;;;;;;;15.60;9.03;;;;;;;12.51;74.13;99527.52;1758742;81;21777;-78
2021/09/20 04:46:59;;;;;;;12.03;7.20;;;;;;;12.47;74.54;99527.61;1771672;81;21146;-78
2021/09/20 04:50:04;;;;;;;20.00;5.85;;;;;;;12.49;73.67;99533.72;1767202;81;21392;-77
2021/09/20 04:53:10;;;;;;;13.65;5.95;;;;;;;12.48;72.17;99539.42;1762037;81;21724;-76
2021/09/20 04:56:16;;;;;;;12.82;7.05;;;;;;;12.50;71.78;99546.91;1753029;81;21645;-77
2021/09/20 04:59:22;;;;;;;15.93;6.60;;;;;;;12.56;71.25;99545.22;1761566;80;21883;-78
2021/09/20 05:02:30;;;;;;;8.30;4.92;;;;;;;12.60;71.43;99539.64;1759089;81;21179;-77
2021/09/20 05:05:39;;;;;;;12.67;6.53;;;;;;;12.61;71.12;99538.09;1764436;80;21336;-77
2021/09/20 05:08:52;;;;;;;8.30;6.55;;;;;;;12.68;71.43;99541.67;1754217;79;21295;-77
2021/09/20 05:11:59;;;;;;;9.18;6.22;;;;;;;12.74;71.52;99535.87;1738798;80;21154;-77
2021/09/20 05:15:06;;;;;;;10.25;4.97;;;;;;;12.80;71.79;99543.29;1758779;79;21257;-77
2021/09/20 05:18:14;;;;;;;11.43;6.30;;;;;;;12.86;71.04;99542.44;1757099;79;22336;-77
2021/09/20 05:21:21;;;;;;;9.68;5.83;;;;;;;12.86;69.88;99542.97;1762426;79;21165;-78
2021/09/20 05:24:26;;;;;;;9.78;5.53;;;;;;;12.88;69.32;99540.31;1718439;81;21260;-80
2021/09/20 05:27:34;;;;;;;7.30;5.92;;;;;;;12.91;69.69;99548.67;1769163;79;21180;-77
2021/09/20 05:30:39;;;;;;;9.33;4.62;;;;;;;12.90;70.04;99545.09;1750222;79;21203;-79
2021/09/20 05:33:46;;;;;;;9.98;4.15;;;;;;;12.91;69.57;99543.19;1769792;79;21319;-78
2021/09/20 05:36:52;;;;;;;5.58;2.95;;;;;;;12.94;68.80;99546.89;1701937;79;21192;-78
2021/09/20 05:40:03;;;;;;;5.15;1.85;;;;;;;12.93;68.82;99547.39;1731708;79;21183;-81
2021/09/20 05:43:19;;;;;;;6.40;2.10;;;;;;;12.98;68.12;99552.25;1769962;79;21193;-77
2021/09/20 05:46:30;;;;;;;3.92;1.80;;;;;;;13.03;68.13;99550.59;1728104;79;21153;-77
2021/09/20 05:53:39;;;;;;;1.52;1.37;;;;;;;13.23;68.04;99568.46;1770392;79;21616;-77
2021/09/20 05:56:56;;;;;;;2.27;1.52;;;;;;;13.24;67.06;99562.44;1734335;79;21263;-78
2021/09/20 06:00:03;;;;;;;2.72;1.67;;;;;;;13.35;67.22;99563.16;1776500;79;21259;-76
2021/09/20 06:03:09;;;;;;;2.87;1.70;;;;;;;13.43;67.35;99572.56;1770585;79;22634;-78
2021/09/20 06:06:15;;;;;;;3.60;1.77;;;;;;;13.51;67.22;99563.27;1728213;81;21820;-80
2021/09/20 06:09:21;;;;;;;2.35;1.70;;;;;;;13.51;67.04;99568.23;1708788;82;21248;-79
2021/09/20 06:12:28;;;;;;;4.97;1.50;;;;;;;13.42;67.00;99567.30;1721362;81;21214;-77
2021/09/20 06:15:34;;;;;;;1.50;1.32;;;;;;;13.46;67.28;99578.17;1722990;81;21850;-78
2021/09/20 06:18:40;;;;;;;2.08;1.60;;;;;;;13.58;66.82;99586.59;1721616;81;21204;-77
2021/09/20 06:21:45;;;;;;;2.35;1.77;;;;;;;13.71;65.90;99584.68;1723300;81;21220;-77
2021/09/20 06:24:51;;;;;;;4.20;1.67;;;;;;;13.87;65.48;99586.11;1724785;81;21298;-81
2021/09/20 06:27:56;;;;;;;4.53;1.87;;;;;;;14.08;64.89;99592.42;1716875;81;21956;-77
2021/09/20 06:31:07;;;;;;;4.95;1.50;;;;;;;14.22;63.74;99593.53;1721740;81;21204;-76
2021/09/20 06:34:13;;;;;;;4.60;1.30;;;;;;;14.29;62.83;99592.95;1715783;81;21451;-76
2021/09/20 06:37:21;;;;;;;3.10;0.80;;;;;;;14.35;62.19;99593.14;1673470;83;21189;-78
2021/09/20 06:40:28;;;;;;;3.17;0.90;;;;;;;14.48;60.19;99578.83;1668414;81;21216;-77
2021/09/20 06:43:36;;;;;;;1.45;0.65;;;;;;;14.53;60.12;99589.17;1717763;81;21220;-77
2021/09/20 06:46:44;;;;;;;2.05;1.20;;;;;;;14.50;59.92;99589.10;1671473;81;21614;-78
2021/09/20 06:49:49;;;;;;;1.00;0.80;;;;;;;14.54;59.45;99607.41;1716432;81;21185;-76
2021/09/20 06:52:55;;;;;;;2.87;1.37;;;;;;;14.59;59.46;99603.99;1701472;82;21903;-76
2021/09/20 06:56:02;;;;;;;8.75;1.60;;;;;;;14.62;60.21;99610.41;1706112;82;21321;-78
2021/09/20 06:59:06;;;;;;;3.90;1.00;;;;;;;14.74;60.34;99606.75;1760672;79;21188;-76
2021/09/20 07:02:14;;;;;;;1.30;1.10;;;;;;;14.93;57.78;99613.73;1758989;79;21236;-78
2021/09/20 07:05:20;;;;;;;1.77;0.80;;;;;;;15.07;57.35;99616.72;1760307;79;21719;-75
2021/09/20 07:08:25;;;;;;;1.77;0.98;;;;;;;15.31;57.83;99624.70;1757817;79;21288;-77
2021/09/20 07:11:32;;;;;;;4.08;1.25;;;;;;;15.59;55.73;99618.20;1721726;81;22515;-77
2021/09/20 07:14:49;;;;;;;1.70;0.78;;;;;;;15.77;54.43;99628.47;1760317;79;21811;-77
2021/09/20 07:17:56;;;;;;;2.25;1.00;;;;;;;15.90;53.46;99624.72;1747793;79;21225;-78
2021/09/20 07:21:04;;;;;;;1.92;1.20;;;;;;;15.99;54.13;99624.73;1745588;79;21177;-78
2021/09/20 07:24:12;;;;;;;3.62;1.32;;;;;;;16.16;53.95;99618.63;1755069;79;21130;-76
2021/09/20 07:30:00;;;;;;;2.65;1.10;;;;;;;16.49;53.42;99620.45;1828684;76;28163;-77
2021/09/20 07:33:06;;;;;;;3.90;1.20;;;;;;;16.57;53.27;99622.91;1777855;77;21255;-77
2021/09/20 07:36:13;;;;;;;2.50;0.85;;;;;;;16.65;52.12;99624.48;1737036;80;21153;-76
2021/09/20 07:39:25;;;;;;;6.03;1.10;;;;;;;16.71;51.93;99626.87;1740381;79;21207;-76
2021/09/20 07:42:33;;;;;;;3.45;1.10;;;;;;;16.67;51.04;99625.66;1728469;80;21211;-77
2021/09/20 07:45:41;;;;;;;2.45;1.37;;;;;;;16.61;50.81;99617.23;1737197;80;21207;-77
2021/09/20 07:48:47;;;;;;;2.17;1.05;;;;;;;16.52;51.57;99617.23;1721388;80;21187;-77
2021/09/20 07:51:52;;;;;;;2.58;1.55;;;;;;;16.51;52.73;99611.92;1764251;80;21170;-77
2021/09/20 07:54:58;;;;;;;2.37;1.70;;;;;;;16.54;52.98;99613.70;1768386;80;21521;-77
2021/09/20 07:58:13;;;;;;;3.83;1.67;;;;;;;16.60;52.70;99611.92;1769977;79;21283;-76
2021/09/20 08:01:21;;;;;;;4.90;2.08;;;;;;;16.65;53.13;99611.22;1762184;79;21373;-76
2021/09/20 08:04:26;;;;;;;7.30;2.35;;;;;;;16.64;52.65;99615.06;1760968;79;21334;-76
2021/09/20 08:07:32;;;;;;;3.83;2.22;;;;;;;16.52;52.68;99613.64;1763431;79;21287;-77
2021/09/20 08:10:39;;;;;;;4.47;2.45;;;;;;;16.48;52.85;99609.66;1705167;82;21247;-77
2021/09/20 08:13:45;;;;;;;4.45;2.50;;;;;;;16.47;52.20;99614.33;1704705;82;21213;-77
2021/09/20 08:16:54;;;;;;;6.47;2.95;;;;;;;16.49;53.43;99617.69;1706174;82;21328;-78
2021/09/20 08:20:00;;;;;;;8.13;3.08;;;;;;;16.54;53.72;99612.31;1698298;82;21240;-77
2021/09/20 08:23:08;;;;;;;6.25;2.70;;;;;;;16.55;52.80;99608.47;1701185;81;21212;-77
2021/09/20 08:26:14;;;;;;;4.55;2.37;;;;;;;16.57;52.81;99610.48;1704843;81;22521;-77
2021/09/20 08:29:23;;;;;;;5.42;2.35;;;;;;;16.60;51.44;99606.39;1698866;81;21228;-76
2021/09/20 08:32:32;;;;;;;5.15;2.00;;;;;;;16.56;52.80;99614.83;1648894;82;21153;-78
2021/09/20 08:35:40;;;;;;;5.05;1.90;;;;;;;16.56;54.34;99602.41;1724524;80;21229;-78
2021/09/20 08:38:46;;;;;;;3.08;1.87;;;;;;;16.59;52.02;99608.31;1721970;80;21183;-77
2021/09/20 08:41:57;;;;;;;5.05;3.30;;;;;;;16.55;50.72;99604.33;1721803;80;21311;-76
2021/09/20 08:45:13;;;;;;;5.35;2.98;;;;;;;16.47;51.08;99616.25;1742984;79;21605;-77
2021/09/20 08:48:22;;;;;;;6.72;2.52;;;;;;;16.47;52.94;99612.11;1708822;80;21954;-76
2021/09/20 08:51:28;;;;;;;6.10;2.20;;;;;;;16.54;52.82;99611.47;1743421;80;21637;-76
2021/09/20 08:54:34;;;;;;;4.05;2.10;;;;;;;16.55;51.66;99618.13;1739595;79;21197;-78
2021/09/20 08:57:41;;;;;;;3.33;2.00;;;;;;;16.54;52.14;99613.70;1737549;80;22529;-77
2021/09/20 09:03:34;;;;;;;6.30;2.67;;;;;;;16.48;51.25;99611.87;1819269;76;28244;-77
2021/09/20 09:06:39;;;;;;;6.95;2.50;;;;;;;16.46;50.83;99616.77;1792970;78;21223;-77
2021/09/20 09:09:48;;;;;;;5.65;2.83;;;;;;;16.41;50.60;99613.86;1795542;78;21157;-77
2021/09/20 09:13:00;;;;;;;7.25;3.60;;;;;;;16.43;51.37;99613.11;1791732;78;21188;-78
2021/09/20 09:16:21;;;;;;;9.48;4.03;;;;;;;16.47;50.90;99617.63;1797097;78;22288;-78
2021/09/20 09:19:29;;;;;;;15.85;3.92;;;;;;;16.55;52.24;99627.80;1797827;78;21231;-76
2021/09/20 09:22:51;;;;;;;8.53;4.12;;;;;;;16.75;52.47;99619.81;1799926;78;21265;-77
2021/09/20 09:25:57;;;;;;;8.45;3.65;;;;;;;16.94;52.04;99614.58;1797312;78;21188;-78
2021/09/20 09:29:16;;;;;;;8.45;3.00;;;;;;;17.17;52.15;99625.38;1798451;78;21177;-79
2021/09/20 09:32:29;;;;;;;7.83;2.58;;;;;;;17.26;50.29;99626.19;1768793;78;21214;-77
2021/09/20 09:35:47;;;;;;;7.50;2.40;;;;;;;17.28;49.95;99623.20;1708079;78;21152;-77
2021/09/20 09:39:08;;;;;;;3.30;2.02;;;;;;;17.33;48.98;99635.77;1753461;78;21184;-77
2021/09/20 09:42:36;;;;;;;5.80;1.30;;;;;;;17.43;48.86;99628.28;1797039;78;21815;-77
2021/09/20 09:45:44;;;;;;;9.83;2.55;;;;;;;17.44;47.55;99639.09;1769873;78;21162;-77
2021/09/20 09:48:49;;;;;;;2.80;1.70;;;;;;;17.41;48.65;99635.44;1798907;78;21269;-77
2021/09/20 09:52:20;;;;;;;2.33;1.22;;;;;;;17.53;48.26;99635.45;1792668;78;21584;-77
2021/09/20 09:55:22;;;;;;;4.87;2.02;;;;;;;17.59;47.09;99647.77;1795737;78;22722;-78
2021/09/20 09:58:28;;;;;;;7.65;2.95;;;;;;;17.58;46.85;99641.94;1721992;81;22214;-78
2021/09/20 10:01:40;;;;;;;7.80;3.00;;;;;;;17.52;46.20;99642.90;1753910;79;21200;-77
2021/09/20 10:05:03;;;;;;;9.38;3.60;;;;;;;17.31;46.48;99642.06;1675246;84;21244;-78
2021/09/20 10:08:09;;;;;;;7.50;2.42;;;;;;;17.08;47.05;99625.73;1692165;82;21173;-78
2021/09/20 10:11:20;;;;;;;6.12;2.70;;;;;;;16.96;47.75;99637.27;1663229;83;21353;-78
2021/09/20 10:14:29;;;;;;;6.92;1.45;;;;;;;16.95;48.04;99634.22;1685138;83;21163;-77
2021/09/20 10:17:36;;;;;;;1.42;0.90;;;;;;;16.93;47.71;99633.59;1704116;82;21216;-78
2021/09/20 10:20:45;;;;;;;3.75;0.90;;;;;;;16.92;48.39;99626.38;1707101;81;21237;-78
2021/09/20 10:23:52;;;;;;;1.20;0.55;;;;;;;16.95;48.39;99631.45;1702992;82;21715;-77
2021/09/20 10:26:58;;;;;;;0.55;0.55;;;;;;;16.99;48.30;99627.15;1683706;83;21262;-76
2021/09/20 10:30:18;;;;;;;1.30;1.05;;;;;;;17.04;47.65;99624.52;1685205;83;21560;-77
2021/09/20 10:33:29;;;;;;;3.25;0.95;;;;;;;17.06;46.33;99623.73;1684292;83;22449;-79
2021/09/20 10:36:56;;;;;;;1.75;1.12;;;;;;;17.01;46.61;99629.13;1670392;83;21175;-77
2021/09/20 10:40:08;;;;;;;3.42;1.20;;;;;;;16.96;47.38;99634.52;1700274;83;21203;-77
2021/09/20 10:43:18;;;;;;;1.87;1.20;;;;;;;16.97;47.18;99637.57;1689062;83;21217;-76
2021/09/20 10:46:33;;;;;;;1.55;1.22;;;;;;;16.99;47.08;99634.05;1651201;83;21196;-81
2021/09/20 10:49:41;;;;;;;2.40;1.20;;;;;;;17.04;47.23;99636.11;1639013;83;21192;-76
2021/09/20 10:53:34;;;;;;;1.70;1.00;;;;;;;17.14;48.62;99632.78;1663605;82;21215;-77
2021/09/20 10:56:40;;;;;;;1.10;0.95;;;;;;;17.29;47.79;99634.56;1690013;83;21239;-78
2021/09/20 10:59:47;;;;;;;1.57;0.80;;;;;;;17.44;47.83;99641.86;1682400;83;21212;-77
2021/09/20 11:02:53;;;;;;;2.25;0.70;;;;;;;17.49;47.29;99643.36;1686593;82;21180;-77
2021/09/20 11:06:25;;;;;;;1.37;0.90;;;;;;;17.50;46.45;99640.93;1726712;81;21218;-78
2021/09/20 11:09:36;;;;;;;1.00;0.80;;;;;;;17.49;46.68;99636.45;1724288;81;22780;-78
2021/09/20 11:12:41;;;;;;;2.27;1.00;;;;;;;17.47;46.64;99636.41;1725499;81;21217;-77
2021/09/20 11:15:56;;;;;;;0.72;0.70;;;;;;;17.42;45.85;99643.19;1719667;82;21439;-77
2021/09/20 11:19:05;;;;;;;3.25;0.60;;;;;;;17.33;46.05;99642.14;1720449;81;21779;-82
2021/09/20 11:22:26;;;;;;;1.15;0.70;;;;;;;17.26;46.07;99639.16;1717627;81;21176;-77
2021/09/20 11:25:38;;;;;;;0.75;0.68;;;;;;;17.25;46.42;99643.02;1676228;81;22242;-77
2021/09/20 11:28:54;;;;;;;1.27;0.72;;;;;;;17.21;45.86;99630.20;1709059;81;21851;-78
2021/09/20 11:31:53;;;;;;;0.75;0.75;;;;;;;17.17;46.29;99640.58;1727622;81;21279;-76
2021/09/20 11:35:00;;;;;;;0.70;0.70;;;;;;;17.13;46.47;99639.39;1714884;82;21322;-77
2021/09/20 11:38:12;;;;;;;1.05;0.80;;;;;;;17.12;46.40;99634.38;1720833;81;21193;-77
2021/09/20 11:41:28;;;;;;;1.47;0.88;;;;;;;17.01;46.38;99640.17;1732622;81;21656;-77
2021/09/20 11:44:35;;;;;;;2.33;0.98;;;;;;;16.97;47.06;99638.11;1717406;81;21197;-77
2021/09/20 11:47:47;;;;;;;1.75;0.80;;;;;;;17.04;47.23;99641.09;1729671;81;21344;-76
2021/09/20 11:50:52;;;;;;;4.65;0.80;;;;;;;17.08;46.41;99650.61;1736106;81;21322;-77
2021/09/20 11:53:58;;;;;;;0.60;0.60;;;;;;;17.07;46.75;99642.53;1731090;81;21922;-77
2021/09/20 11:57:29;;;;;;;1.00;0.80;;;;;;;17.15;46.01;99642.75;1733951;81;21830;-77
2021/09/20 12:00:37;;;;;;;1.05;0.70;;;;;;;17.13;45.93;99649.06;1708498;81;21185;-79
2021/09/20 12:03:42;;;;;;;2.87;0.98;;;;;;;17.08;46.37;99649.77;1730931;81;21208;-77
2021/09/20 12:06:48;;;;;;;1.87;1.55;;;;;;;17.09;46.33;99645.38;1718122;81;21656;-78
2021/09/20 12:09:57;;;;;;;1.00;0.88;;;;;;;17.17;46.29;99646.11;1716574;81;21224;-77
2021/09/20 12:13:34;;;;;;;1.65;1.12;;;;;;;17.21;46.44;99650.92;1737944;81;21872;-77
2021/09/20 12:16:40;;;;;;;3.92;1.20;;;;;;;17.28;46.45;99648.92;1733025;81;21256;-78
2021/09/20 12:19:48;;;;;;;2.45;1.60;;;;;;;17.32;46.21;99652.90;1722684;80;21539;-77
2021/09/20 12:22:56;;;;;;;2.87;1.25;;;;;;;17.36;46.00;99660.16;1731825;81;21248;-77
2021/09/20 12:26:03;;;;;;;4.25;1.27;;;;;;;17.25;45.80;99660.44;1730968;81;21319;-77
2021/09/20 12:29:09;;;;;;;2.67;1.30;;;;;;;17.09;45.98;99663.88;1737051;81;21647;-77
2021/09/20 12:32:14;;;;;;;3.83;1.50;;;;;;;16.93;46.13;99661.21;1730150;81;21217;-77
2021/09/20 12:35:20;;;;;;;8.23;1.87;;;;;;;16.78;47.21;99640.91;1731289;81;21344;-78
2021/09/20 12:38:42;;;;;;;2.52;1.50;;;;;;;16.61;47.06;99659.19;1729586;81;22920;-76
2021/09/20 12:41:56;;;;;;;5.47;1.40;;;;;;;16.42;47.75;99666.63;1748214;81;22270;-78
2021/09/20 12:45:03;;;;;;;4.92;1.50;;;;;;;16.30;48.15;99660.17;1743088;81;21177;-77
2021/09/20 12:48:09;;;;;;;3.70;1.52;;;;;;;16.22;48.27;99661.84;1743906;81;21248;-76
2021/09/20 12:51:18;;;;;;;1.57;1.47;;;;;;;16.25;48.77;99665.54;1728960;81;21196;-76
2021/09/20 12:54:36;;;;;;;2.35;1.62;;;;;;;16.25;48.60;99661.41;1739002;80;21211;-77
2021/09/20 12:57:42;;;;;;;7.80;1.47;;;;;;;16.18;48.21;99653.72;1729865;81;21197;-78
2021/09/20 13:00:47;;;;;;;4.72;1.35;;;;;;;16.09;48.54;99663.69;1743968;81;21240;-79
2021/09/20 13:03:54;;;;;;;3.22;1.85;;;;;;;16.10;48.75;99664.53;1731465;82;21200;-76
2021/09/20 13:07:19;;;;;;;4.60;2.30;;;;;;;16.08;48.93;99670.80;1706758;81;21212;-76
2021/09/20 13:10:24;;;;;;;3.55;2.65;;;;;;;16.02;49.35;99670.34;1724424;82;21581;-76
2021/09/20 13:13:42;;;;;;;7.85;2.83;;;;;;;15.97;50.08;99668.80;1723766;81;21169;-76
2021/09/20 13:16:48;;;;;;;5.53;3.17;;;;;;;15.90;50.64;99671.59;1716593;82;21194;-76
2021/09/20 13:20:14;;;;;;;5.15;3.37;;;;;;;15.75;50.82;99670.57;1722673;81;21280;-76
2021/09/20 13:23:23;;;;;;;4.17;2.67;;;;;;;15.61;51.55;99663.45;1702589;84;21331;-76
2021/09/20 13:26:41;;;;;;;7.25;2.65;;;;;;;15.56;51.63;99669.64;1705913;83;22573;-79
2021/09/20 13:29:47;;;;;;;5.25;2.92;;;;;;;15.50;51.47;99671.92;1730928;82;21296;-78
2021/09/20 13:32:52;;;;;;;5.30;2.52;;;;;;;15.45;51.64;99677.80;1720919;82;21303;-78
2021/09/20 13:36:02;;;;;;;5.85;2.77;;;;;;;15.45;51.71;99679.17;1713225;82;21315;-78
2021/09/20 13:39:09;;;;;;;7.20;2.75;;;;;;;15.56;51.89;99684.80;1715094;82;21319;-78
2021/09/20 13:42:14;;;;;;;5.72;2.75;;;;;;;15.63;51.37;99681.17;1725982;82;21936;-76
2021/09/20 13:45:20;;;;;;;4.15;2.75;;;;;;;15.66;51.52;99684.86;1727126;82;21414;-77
2021/09/20 13:48:27;;;;;;;4.35;2.52;;;;;;;15.60;51.52;99686.58;1728456;82;21311;-77
2021/09/20 13:51:32;;;;;;;7.30;2.98;;;;;;;15.51;51.51;99683.78;1725726;82;22445;-78
2021/09/20 13:54:38;;;;;;;6.53;2.58;;;;;;;15.36;51.86;99675.84;1728906;82;21202;-78
2021/09/20 13:57:44;;;;;;;7.17;2.95;;;;;;;15.25;51.76;99679.33;1732996;82;21327;-78
2021/09/20 14:00:50;;;;;;;6.17;2.70;;;;;;;15.15;52.54;99688.08;1732688;82;21367;-77
2021/09/20 14:03:56;;;;;;;6.55;2.60;;;;;;;15.12;53.01;99682.16;1716087;82;21317;-77
2021/09/20 14:07:02;;;;;;;3.17;2.17;;;;;;;15.13;52.80;99683.84;1712918;83;21683;-78
2021/09/20 14:10:08;;;;;;;4.12;2.80;;;;;;;15.11;51.93;99693.71;1771110;81;21358;-78
2021/09/20 14:13:15;;;;;;;3.95;2.83;;;;;;;15.09;51.06;99695.82;1768768;81;21790;-78
2021/09/20 14:16:20;;;;;;;5.30;3.00;;;;;;;15.03;51.14;99701.69;1769209;81;21330;-78
2021/09/20 14:19:25;;;;;;;5.12;3.15;;;;;;;14.97;51.56;99703.95;1768450;81;21859;-78
2021/09/20 14:22:32;;;;;;;9.83;3.58;;;;;;;14.90;52.03;99711.92;1769873;81;22051;-78
2021/09/20 14:25:40;;;;;;;10.53;3.20;;;;;;;14.82;52.63;99721.30;1768735;80;21224;-78
2021/09/20 14:28:46;;;;;;;6.87;2.77;;;;;;;14.71;53.13;99717.29;1769423;81;21346;-78
2021/09/20 14:31:52;;;;;;;7.75;2.90;;;;;;;14.61;53.98;99718.81;1771592;81;21338;-78
2021/09/20 14:34:59;;;;;;;5.33;2.22;;;;;;;14.55;54.41;99723.29;1771174;81;21334;-78
2021/09/20 14:38:04;;;;;;;5.90;3.00;;;;;;;14.52;54.80;99728.68;1772026;81;21731;-77
2021/09/20 14:41:09;;;;;;;3.27;2.50;;;;;;;14.50;54.72;99734.94;1771192;81;21842;-78
2021/09/20 14:44:16;;;;;;;3.62;2.55;;;;;;;14.43;55.09;99729.94;1771407;81;21314;-78
2021/09/20 14:47:22;;;;;;;4.17;2.25;;;;;;;14.37;55.28;99732.19;1770253;81;21381;-78
2021/09/20 14:50:32;;;;;;;3.00;2.30;;;;;;;14.30;55.22;99735.47;1771360;81;21881;-78
2021/09/20 14:53:37;;;;;;;3.00;2.52;;;;;;;14.20;55.37;99736.44;1771570;81;21325;-78
2021/09/20 14:56:45;;;;;;;3.25;2.62;;;;;;;14.10;55.82;99739.63;1769980;81;21176;-78